Terminal Aerodrome Forecast
Issued by NWS

Home | Current Version | Previous Version | Text Only | Print | Product List | Glossary On
Versions: 1 2 3 4 5 6 7 8 9 10 11 12 13 14 15
000
FTUS42 TJSJ 240540
TAFJMZ
TAF
TJMZ 240540Z 2406/2506 00000KT P6SM SKC
     FM241630 27010KT P6SM VCSH BKN030
     FM242300 00000KT P6SM SKC
      AMD NOT SKED=

USA.gov is the U.S. government's official web portal to all federal, state and local government web resources and services.